Aérodrome :
LOGIN :

S'inscrire | Disclaimer

   EN    FR    IT 

 










Légende :    VFR   VFR Marginal   IFR   IFR Intensif   IFR Très Intensif
Visi : 
Plafond : 
>= 8 km
>= 3000ft
5 à 8 km
1000 à 3000 ft
1500m à 5 km
500 à 1000 ft
800 à 1500m
200 à 500 ft
< 800m
< 200 ft
Symboles :   Orages  Brouillard  Fortes neiges  Fortes précipitations  Vent > 20 kt
SIGMETs :   Divers  Orages  Givrage  Turbulence  Onde Orograph.  Cendres Volcan.







- Altitude de l'aérodrome : 286 ft
- Code IATA : TRF


ENTO - Sandefjord , Torp

DERNIER METAR :
  • 160850Z 13008KT 9999 OVC012 02/M00 Q1021

METARs EXPIRÉS :
  • 160820Z 13009KT 9999 OVC011 02/M00 Q1021
  • 160750Z 13009KT 9999 OVC011 01/M00 Q1021
  • 160720Z 13008KT 100V160 9999 -SN FEW003 BKN011 OVC013 01/M00 Q1021
  • 160650Z 13008KT 100V160 9999 OVC012 01/M00 Q1021
  • 160620Z AUTO 13008KT 100V160 9999 OVC012/// 01/M00 Q1021
  • 160550Z AUTO 13009KT 9999 OVC013/// 01/M01 Q1021

TAF TAF ENTO
Valide du 16 à 06h jusqu'au 17 à 06h UTC


1606/1706 11008KT 9999 SCT008 BKN018
TEMPO 1606/1609 3000 -SN OVC008
TEMPO 1618/1706 2000 -SN BR OVC004
BECMG 1622/1624 02010KT
Pas de NOTAMs connus pour ce terrain.
3 SIGMETs publiés pour la FIR Norway (ENOR) :
 
Onde orographique forte
ENSV SIGMET B03 VALID 160800/161200 ENVV
ENOR NORWAY FIR SEV MTW FCST WI N5800 E00730 - N5830 E00530 - N6200 E00530 - N6200 E00730 - N5800 E00730 SFC/FL200 STNR NC=
Onde orographique forte
ENOS SIGMET A03 VALID 160800/161200 ENMI
ENOR NORWAY FIR SEV MTW FCST WI N6050 E00730 - N6200 E00730 - N6200 E00900 - N6050 E00730 SFC/FL200 STNR WKN=
Onde orographique forte
ENBD SIGMET C03 VALID 160800/161200 ENVV
ENOR NORWAY FIR SEV MTW FCST WI N6200 E00530 - N6300 E00830 - N6400 E01240 - N6200 E01215 - N6200 E00530 SFC/FL200 STNR NC=



MET'MAP, la Météo Aéronautique d'un coup d'oeil ! - Copyright ORBIFLY Décembre 2007 - Disclaimer

ORBIFLY MET'MAP TEAM :

Programmation & Développement : Alexandra Zaïnal
Conception & Développement : Baudouin d'Aumeries
Co-Programmation & Développement : Marc-Olivier Méhu
Soutien technique & logistique : Manuel Goepfert

Contact : metmap@orbifly.com




SOURCES & CREDITS :

   NOAA